createdAt,value
2023-03-07T00:00:39.746Z,99795.38
2023-03-07T00:03:08.105Z,99792.30
2023-03-07T00:05:36.824Z,99786.14
2023-03-07T00:08:05.078Z,99785.27
2023-03-07T00:10:33.281Z,99785.41
2023-03-07T00:13:04.409Z,99778.20
2023-03-07T00:15:32.823Z,99774.43
2023-03-07T00:18:01.943Z,99768.28
2023-03-07T00:20:30.238Z,99766.93
2023-03-07T00:22:58.462Z,99761.81
2023-03-07T00:25:26.778Z,99759.79
2023-03-07T00:27:55.103Z,99757.95
2023-03-07T00:30:26.016Z,99755.09
2023-03-07T00:32:54.703Z,99756.48
2023-03-07T00:35:23.252Z,99752.92
2023-03-07T00:37:52.721Z,99752.98
2023-03-07T00:40:20.943Z,99755.22
2023-03-07T00:42:49.998Z,99747.75
2023-03-07T00:45:23.160Z,99746.92
2023-03-07T00:47:51.560Z,99742.71
2023-03-07T00:50:19.790Z,99742.42
2023-03-07T00:52:48.522Z,99743.18
2023-03-07T00:55:17.416Z,99742.05
2023-03-07T00:57:47.451Z,99738.83
2023-03-07T01:00:16.108Z,99732.51
2023-03-07T01:02:44.397Z,99731.50
2023-03-07T01:05:13.492Z,99731.36
2023-03-07T01:07:42.510Z,99729.52
2023-03-07T01:10:12.662Z,99726.30
2023-03-07T01:12:56.977Z,99720.34
2023-03-07T01:15:26.056Z,99715.38
2023-03-07T01:17:54.661Z,99710.92
2023-03-07T01:20:23.050Z,99707.15
2023-03-07T01:22:51.561Z,99705.96
2023-03-07T01:25:20.092Z,99704.27
2023-03-07T01:27:48.763Z,99698.79
2023-03-07T01:30:17.171Z,99697.73
2023-03-07T01:32:59.260Z,99693.80
2023-03-07T01:35:28.691Z,99690.20
2023-03-07T01:37:58.630Z,99685.73
2023-03-07T01:40:27.590Z,99682.65
2023-03-07T01:42:55.947Z,99677.34
2023-03-07T01:45:34.439Z,99684.35
2023-03-07T01:48:03.170Z,99678.90
2023-03-07T01:50:32.066Z,99674.14
2023-03-07T01:53:00.403Z,99670.89
2023-03-07T01:55:32.389Z,99669.65
2023-03-07T01:58:09.160Z,99665.89
2023-03-07T02:00:39.119Z,99661.45
2023-03-07T02:03:13.273Z,99662.48
2023-03-07T02:05:47.803Z,99657.19
2023-03-07T02:08:16.132Z,99654.13
2023-03-07T02:10:45.531Z,99649.53
2023-03-07T02:13:13.813Z,99650.53
2023-03-07T02:15:50.506Z,99653.42
2023-03-07T02:18:20.632Z,99657.01
2023-03-07T02:20:51.388Z,99653.27
2023-03-07T02:23:29.606Z,99653.63
2023-03-07T02:26:13.176Z,99649.55
2023-03-07T02:28:42.932Z,99647.17
2023-03-07T02:31:11.831Z,99645.29
2023-03-07T02:33:41.940Z,99645.59
2023-03-07T02:36:13.510Z,99639.60
2023-03-07T02:38:50.817Z,99636.34
2023-03-07T02:41:26.782Z,99636.84
2023-03-07T02:43:55.545Z,99634.75
2023-03-07T02:46:24.039Z,99631.64
2023-03-07T02:48:52.288Z,99631.44
2023-03-07T02:51:23.868Z,99629.17
2023-03-07T02:53:52.401Z,99625.54
2023-03-07T02:56:20.871Z,99628.89
2023-03-07T02:58:49.160Z,99629.55
2023-03-07T03:01:18.025Z,99626.48
2023-03-07T03:03:46.496Z,99630.90
2023-03-07T03:06:15.598Z,99631.23
2023-03-07T03:08:44.427Z,99628.63
2023-03-07T03:11:12.870Z,99625.86
2023-03-07T03:13:41.361Z,99622.92
2023-03-07T03:16:10.196Z,99624.95
2023-03-07T03:18:39.049Z,99627.66
2023-03-07T03:21:08.393Z,99627.48
2023-03-07T03:23:36.862Z,99623.91
2023-03-07T03:26:07.868Z,99623.06
2023-03-07T03:28:37.361Z,99620.16
2023-03-07T03:31:10.781Z,99610.41
2023-03-07T03:33:41.400Z,99606.81
2023-03-07T03:36:10.813Z,99602.01
2023-03-07T03:38:39.540Z,99607.77
2023-03-07T03:41:11.019Z,99610.79
2023-03-07T03:43:41.140Z,99609.41
2023-03-07T03:46:09.554Z,99606.87
2023-03-07T03:48:38.428Z,99609.65
2023-03-07T03:51:14.729Z,99607.65
2023-03-07T03:53:43.511Z,99605.64
2023-03-07T03:56:12.596Z,99606.52
2023-03-07T03:58:40.985Z,99611.17
2023-03-07T04:01:10.738Z,99609.84
2023-03-07T04:03:40.000Z,99606.77
2023-03-07T04:06:09.103Z,99609.34
2023-03-07T04:08:41.711Z,99609.51
2023-03-07T04:11:10.000Z,99614.45
2023-03-07T04:13:39.890Z,99613.94
2023-03-07T04:16:08.254Z,99613.09
2023-03-07T04:18:40.246Z,99615.31
2023-03-07T04:21:08.895Z,99615.14
2023-03-07T04:23:42.220Z,99614.99
2023-03-07T04:26:12.468Z,99615.34
2023-03-07T04:28:49.416Z,99610.91
2023-03-07T04:31:44.517Z,99612.82
2023-03-07T04:34:13.289Z,99609.27
2023-03-07T04:36:43.033Z,99606.75
2023-03-07T04:39:13.928Z,99614.63
2023-03-07T04:41:43.866Z,99616.17
2023-03-07T04:44:18.884Z,99610.91
2023-03-07T04:46:47.121Z,99616.27
2023-03-07T04:49:16.004Z,99618.02
2023-03-07T04:51:44.331Z,99619.94
2023-03-07T04:54:15.314Z,99621.02
2023-03-07T04:56:44.472Z,99621.41
2023-03-07T04:59:13.530Z,99621.61
2023-03-07T05:01:42.533Z,99622.52
2023-03-07T05:04:10.968Z,99624.63
2023-03-07T05:06:44.421Z,99625.67
2023-03-07T05:09:13.492Z,99628.27
2023-03-07T05:11:42.634Z,99631.02
2023-03-07T05:14:10.931Z,99629.14
2023-03-07T05:16:39.976Z,99623.53
2023-03-07T05:19:08.872Z,99629.02
2023-03-07T05:21:57.788Z,99631.77
2023-03-07T05:24:26.309Z,99628.70
2023-03-07T05:26:55.270Z,99628.52
2023-03-07T05:29:23.641Z,99629.20
2023-03-07T05:31:51.929Z,99631.27
2023-03-07T05:34:20.617Z,99628.88
2023-03-07T05:36:55.102Z,99629.77
2023-03-07T05:39:24.330Z,99628.93
2023-03-07T05:41:52.732Z,99629.80
2023-03-07T05:44:21.842Z,99633.58
2023-03-07T05:46:50.294Z,99635.14
2023-03-07T05:49:19.751Z,99634.67
2023-03-07T05:51:48.255Z,99635.05
2023-03-07T05:54:16.816Z,99632.35
2023-03-07T05:56:50.103Z,99631.37
2023-03-07T05:59:18.599Z,99630.23
2023-03-07T06:01:50.297Z,99626.52
2023-03-07T06:04:18.720Z,99625.02
2023-03-07T06:06:47.408Z,99623.70
2023-03-07T06:09:16.060Z,99625.80
2023-03-07T06:11:45.146Z,99622.75
2023-03-07T06:14:13.616Z,99624.63
2023-03-07T06:16:42.119Z,99622.92
2023-03-07T06:19:10.521Z,99625.66
2023-03-07T06:21:39.012Z,99630.45
2023-03-07T06:24:07.649Z,99627.85
2023-03-07T06:26:35.865Z,99629.02
2023-03-07T06:29:04.171Z,99630.49
2023-03-07T06:31:32.755Z,99628.56
2023-03-07T06:34:01.122Z,99630.59
2023-03-07T06:36:29.741Z,99635.30
2023-03-07T06:39:00.788Z,99630.45
2023-03-07T06:41:29.820Z,99621.84
2023-03-07T06:43:59.331Z,99618.05
2023-03-07T06:46:31.888Z,99619.52
2023-03-07T06:49:02.441Z,99618.63
2023-03-07T06:51:30.981Z,99623.56
2023-03-07T06:54:02.789Z,99626.09
2023-03-07T06:56:31.481Z,99629.15
2023-03-07T06:59:00.447Z,99625.91
2023-03-07T07:01:28.842Z,99628.10
2023-03-07T07:03:58.277Z,99632.46
2023-03-07T07:06:30.777Z,99631.68
2023-03-07T07:08:59.021Z,99628.87
2023-03-07T07:11:32.092Z,99631.89
2023-03-07T07:14:01.594Z,99630.79
2023-03-07T07:16:33.870Z,99629.96
2023-03-07T07:19:02.245Z,99631.75
2023-03-07T07:21:31.763Z,99639.23
2023-03-07T07:24:01.003Z,99633.23
2023-03-07T07:26:29.540Z,99630.81
2023-03-07T07:28:59.667Z,99632.69
2023-03-07T07:31:27.950Z,99634.05
2023-03-07T07:33:56.473Z,99635.66
2023-03-07T07:36:27.176Z,99630.56
2023-03-07T07:38:58.018Z,99628.09
2023-03-07T07:41:26.617Z,99626.16
2023-03-07T07:43:55.945Z,99624.99
2023-03-07T07:46:30.069Z,99619.70
2023-03-07T07:48:58.955Z,99621.41
2023-03-07T07:51:27.808Z,99614.02
2023-03-07T07:53:56.252Z,99616.14
2023-03-07T07:56:24.565Z,99612.34
2023-03-07T07:58:56.121Z,99613.98
2023-03-07T08:01:25.168Z,99612.65
2023-03-07T08:03:53.981Z,99615.64
2023-03-07T08:06:23.593Z,99612.66
2023-03-07T08:08:52.046Z,99621.14
2023-03-07T08:11:20.580Z,99620.03
2023-03-07T08:13:49.603Z,99623.67
2023-03-07T08:16:18.740Z,99627.71
2023-03-07T08:18:50.888Z,99622.52
2023-03-07T08:21:19.354Z,99620.23
2023-03-07T08:23:47.702Z,99617.44
2023-03-07T08:26:17.893Z,99621.35
2023-03-07T08:28:46.761Z,99624.13
2023-03-07T08:31:16.419Z,99624.85
2023-03-07T08:33:56.457Z,99621.77
2023-03-07T08:36:25.619Z,99626.77
2023-03-07T08:38:59.396Z,99617.98
2023-03-07T08:41:27.729Z,99621.58
2023-03-07T08:43:55.975Z,99620.67
2023-03-07T08:46:24.781Z,99624.80
2023-03-07T08:48:54.280Z,99621.34
2023-03-07T08:51:29.103Z,99627.89
2023-03-07T08:53:57.943Z,99623.11
2023-03-07T08:56:26.336Z,99619.94
2023-03-07T08:58:54.847Z,99623.03
2023-03-07T09:01:23.248Z,99621.84
2023-03-07T09:03:51.565Z,99621.70
2023-03-07T09:06:20.398Z,99624.55
2023-03-07T09:08:49.127Z,99618.02
2023-03-07T09:11:18.637Z,99619.39
2023-03-07T09:13:52.520Z,99622.29
2023-03-07T09:16:22.440Z,99618.30
2023-03-07T09:18:50.893Z,99614.83
2023-03-07T09:21:19.911Z,99613.42
2023-03-07T09:23:48.733Z,99615.96
2023-03-07T09:26:19.087Z,99613.30
2023-03-07T09:28:47.475Z,99609.88
2023-03-07T09:31:16.320Z,99603.94
2023-03-07T09:33:47.142Z,99604.22
2023-03-07T09:36:19.768Z,99601.04
2023-03-07T09:38:48.502Z,99594.42
2023-03-07T09:41:20.450Z,99596.41
2023-03-07T09:44:07.425Z,99594.16
2023-03-07T09:47:32.738Z,99591.50
2023-03-07T09:50:01.761Z,99588.93
2023-03-07T09:52:32.545Z,99581.10
2023-03-07T09:55:01.913Z,99575.41
2023-03-07T09:57:33.937Z,99570.02
2023-03-07T10:00:07.360Z,99566.01
2023-03-07T10:02:44.466Z,99568.38
2023-03-07T10:05:18.951Z,99561.55
2023-03-07T10:07:47.338Z,99562.17
2023-03-07T10:10:20.281Z,99563.04
2023-03-07T10:13:02.000Z,99556.64
2023-03-07T10:15:30.461Z,99553.70
2023-03-07T10:18:32.607Z,99551.75
2023-03-07T10:21:01.169Z,99545.20
2023-03-07T10:23:35.165Z,99548.04
2023-03-07T10:26:11.039Z,99547.61
2023-03-07T10:28:42.462Z,99537.46
2023-03-07T10:31:18.392Z,99532.80
2023-03-07T10:33:48.383Z,99529.42
2023-03-07T10:36:20.615Z,99526.54
2023-03-07T10:39:12.541Z,99527.09
2023-03-07T10:41:41.227Z,99527.70
2023-03-07T10:44:17.665Z,99527.14
2023-03-07T10:46:55.766Z,99527.28
2023-03-07T10:49:28.811Z,99525.39
2023-03-07T10:52:04.801Z,99524.11
2023-03-07T10:54:34.224Z,99513.42
2023-03-07T10:57:03.197Z,99507.75
2023-03-07T10:59:32.444Z,99506.39
2023-03-07T11:02:01.234Z,99504.75
2023-03-07T11:04:30.606Z,99499.27
2023-03-07T11:06:59.711Z,99504.48
2023-03-07T11:09:30.802Z,99495.04
2023-03-07T11:12:05.182Z,99493.91
2023-03-07T11:14:54.180Z,99490.81
2023-03-07T11:17:22.544Z,99490.31
2023-03-07T11:19:54.881Z,99487.57
2023-03-07T11:22:36.813Z,99485.23
2023-03-07T11:25:16.136Z,99481.87
2023-03-07T11:27:52.101Z,99474.49
2023-03-07T11:30:21.223Z,99478.44
2023-03-07T11:32:53.425Z,99476.06
2023-03-07T11:35:22.996Z,99475.35
2023-03-07T11:37:54.241Z,99471.17
2023-03-07T11:40:51.086Z,99469.29
2023-03-07T11:43:21.610Z,99466.45
2023-03-07T11:46:08.925Z,99462.92
2023-03-07T11:48:54.505Z,99472.73
2023-03-07T11:51:52.010Z,99459.80
2023-03-07T11:54:35.381Z,99464.13
2023-03-07T11:57:12.156Z,99454.09
2023-03-07T11:59:59.108Z,99462.22
2023-03-07T12:02:33.779Z,99457.84
2023-03-07T12:05:20.310Z,99459.12
2023-03-07T12:08:07.102Z,99453.02
2023-03-07T12:10:41.291Z,99454.91
2023-03-07T12:13:21.691Z,99452.30
2023-03-07T12:15:59.938Z,99451.63
2023-03-07T12:18:30.933Z,99454.19
2023-03-07T12:20:59.218Z,99459.00
2023-03-07T12:23:28.535Z,99445.92
2023-03-07T12:25:58.134Z,99444.45
2023-03-07T12:28:36.311Z,99444.29
2023-03-07T12:31:11.847Z,99437.65
2023-03-07T12:33:55.427Z,99431.23
2023-03-07T12:36:28.450Z,99432.17
2023-03-07T12:38:59.779Z,99421.89
2023-03-07T12:41:31.394Z,99421.46
2023-03-07T12:44:05.921Z,99422.98
2023-03-07T12:47:03.804Z,99420.21
2023-03-07T12:49:49.661Z,99417.05
2023-03-07T12:52:23.283Z,99418.38
2023-03-07T12:54:55.682Z,99412.02
2023-03-07T12:57:51.126Z,99402.52
2023-03-07T13:00:19.948Z,99407.04
2023-03-07T13:03:01.780Z,99407.71
2023-03-07T13:05:30.597Z,99396.66
2023-03-07T13:07:59.970Z,99392.88
2023-03-07T13:10:28.556Z,99399.98
2023-03-07T13:12:58.766Z,99397.00
2023-03-07T13:15:47.230Z,99393.73
2023-03-07T13:18:26.735Z,99394.57
2023-03-07T13:21:13.923Z,99388.87
2023-03-07T13:23:42.219Z,99388.84
2023-03-07T13:26:11.094Z,99386.66
2023-03-07T13:28:40.735Z,99389.68
2023-03-07T13:31:15.516Z,99384.45
2023-03-07T13:33:44.836Z,99385.95
2023-03-07T13:36:32.643Z,99387.58
2023-03-07T13:39:01.305Z,99385.38
2023-03-07T13:41:44.102Z,99381.65
2023-03-07T13:44:28.812Z,99375.38
2023-03-07T13:47:01.683Z,99372.63
2023-03-07T13:49:33.337Z,99367.77
2023-03-07T13:52:20.491Z,99365.64
2023-03-07T13:54:49.218Z,99361.73
2023-03-07T13:57:20.895Z,99363.01
2023-03-07T13:59:52.175Z,99359.25
2023-03-07T14:02:20.665Z,99356.35
2023-03-07T14:04:54.769Z,99361.09
2023-03-07T14:07:25.283Z,99352.50
2023-03-07T14:09:57.574Z,99355.91
2023-03-07T14:13:05.446Z,99354.66
2023-03-07T14:15:42.892Z,99356.91
2023-03-07T14:18:31.320Z,99355.48
2023-03-07T14:21:03.036Z,99354.39
2023-03-07T14:23:51.453Z,99354.84
2023-03-07T14:26:40.976Z,99353.23
2023-03-07T14:29:20.712Z,99355.38
2023-03-07T14:31:49.485Z,99357.02
2023-03-07T14:34:22.455Z,99358.67
2023-03-07T14:36:55.404Z,99358.08
2023-03-07T14:39:24.092Z,99349.39
2023-03-07T14:41:55.528Z,99351.19
2023-03-07T14:44:43.931Z,99354.42
2023-03-07T14:47:24.577Z,99351.08
2023-03-07T14:49:59.140Z,99352.56
2023-03-07T14:52:31.449Z,99345.94
2023-03-07T14:55:00.312Z,99347.92
2023-03-07T14:57:31.950Z,99348.88
2023-03-07T15:00:20.264Z,99348.96
2023-03-07T15:03:05.074Z,99348.89
2023-03-07T15:05:47.402Z,99348.85
2023-03-07T15:08:19.799Z,99353.27
2023-03-07T15:10:48.802Z,99341.98
2023-03-07T15:13:27.117Z,99341.02
2023-03-07T15:15:57.671Z,99342.58
2023-03-07T15:18:31.486Z,99336.46
2023-03-07T15:20:59.814Z,99335.66
2023-03-07T15:23:28.362Z,99332.63
2023-03-07T15:25:57.788Z,99329.73
2023-03-07T15:28:27.923Z,99332.20
2023-03-07T15:30:56.349Z,99335.35
2023-03-07T15:33:25.511Z,99333.50
2023-03-07T15:36:07.106Z,99328.18
2023-03-07T15:38:35.787Z,99324.73
2023-03-07T15:41:24.650Z,99325.45
2023-03-07T15:44:11.400Z,99321.38
2023-03-07T15:46:43.292Z,99321.05
2023-03-07T15:49:18.197Z,99329.00
2023-03-07T15:51:46.360Z,99331.41
2023-03-07T15:54:17.486Z,99328.20
2023-03-07T15:56:46.463Z,99328.55
2023-03-07T15:59:18.889Z,99321.30
2023-03-07T16:01:49.655Z,99312.50
2023-03-07T16:04:32.053Z,99306.40
2023-03-07T16:07:01.148Z,99308.68
2023-03-07T16:09:30.869Z,99303.35
2023-03-07T16:11:59.143Z,99309.27
2023-03-07T16:14:31.068Z,99308.80
2023-03-07T16:17:01.221Z,99313.43
2023-03-07T16:19:29.986Z,99319.81
2023-03-07T16:21:59.293Z,99330.86
2023-03-07T16:24:27.675Z,99330.21
2023-03-07T16:26:55.956Z,99336.25
2023-03-07T16:29:24.259Z,99342.27
2023-03-07T16:31:52.678Z,99347.16
2023-03-07T16:34:27.242Z,99338.30
2023-03-07T16:36:55.687Z,99334.98
2023-03-07T16:39:25.276Z,99324.60
2023-03-07T16:41:53.545Z,99318.98
2023-03-07T16:44:21.964Z,99319.98
2023-03-07T16:46:55.976Z,99335.33
2023-03-07T16:49:24.338Z,99354.84
2023-03-07T16:52:05.271Z,99379.26
2023-03-07T16:54:34.960Z,99389.48
2023-03-07T16:57:07.362Z,99402.92
2023-03-07T16:59:36.149Z,99405.05
2023-03-07T17:02:24.816Z,99397.52
2023-03-07T17:04:54.057Z,99424.05
2023-03-07T17:07:23.007Z,99417.23
2023-03-07T17:09:51.771Z,99393.57
2023-03-07T17:12:23.024Z,99369.02
2023-03-07T17:14:51.462Z,99369.00
2023-03-07T17:17:22.275Z,99352.86
2023-03-07T17:19:56.440Z,99335.38
2023-03-07T17:22:24.878Z,99335.23
2023-03-07T17:24:53.190Z,99330.25
2023-03-07T17:27:22.154Z,99331.09
2023-03-07T17:29:52.968Z,99325.44
2023-03-07T17:32:21.498Z,99317.20
2023-03-07T17:34:50.488Z,99319.27
2023-03-07T17:37:18.953Z,99304.13
2023-03-07T17:39:49.987Z,99320.20
2023-03-07T17:42:18.254Z,99326.48
2023-03-07T17:44:47.363Z,99322.62
2023-03-07T17:47:15.667Z,99317.59
2023-03-07T17:49:46.369Z,99312.40
2023-03-07T17:52:15.671Z,99313.20
2023-03-07T17:54:46.101Z,99310.73
2023-03-07T17:57:14.641Z,99308.81
2023-03-07T17:59:43.585Z,99312.25
2023-03-07T18:02:12.192Z,99317.17
2023-03-07T18:04:40.733Z,99319.03
2023-03-07T18:07:09.034Z,99313.47
2023-03-07T18:09:41.167Z,99317.01
2023-03-07T18:12:10.065Z,99330.18
2023-03-07T18:14:39.124Z,99324.11
2023-03-07T18:17:07.411Z,99321.70
2023-03-07T18:19:40.759Z,99322.52
2023-03-07T18:22:09.378Z,99324.43
2023-03-07T18:24:38.022Z,99323.06
2023-03-07T18:27:08.855Z,99325.13
2023-03-07T18:29:37.316Z,99325.83
2023-03-07T18:32:05.741Z,99322.92
2023-03-07T18:34:36.346Z,99328.59
2023-03-07T18:37:04.816Z,99329.79
2023-03-07T18:39:37.325Z,99333.22
2023-03-07T18:42:05.745Z,99333.70
2023-03-07T18:44:34.048Z,99335.59
2023-03-07T18:47:07.640Z,99336.08
2023-03-07T18:49:36.845Z,99334.70
2023-03-07T18:52:05.407Z,99337.45
2023-03-07T18:54:34.516Z,99339.51
2023-03-07T18:57:02.764Z,99339.52
2023-03-07T18:59:33.450Z,99341.73
2023-03-07T19:02:03.304Z,99339.01
2023-03-07T19:04:31.831Z,99339.84
2023-03-07T19:07:00.810Z,99344.27
2023-03-07T19:09:31.449Z,99342.33
2023-03-07T19:12:00.592Z,99344.52
2023-03-07T19:14:28.909Z,99339.16
2023-03-07T19:16:57.524Z,99351.68
2023-03-07T19:19:31.750Z,99371.77
2023-03-07T19:22:00.036Z,99373.46
2023-03-07T19:24:28.343Z,99374.11
2023-03-07T19:26:57.874Z,99377.02
2023-03-07T19:29:26.112Z,99377.83
2023-03-07T19:31:56.544Z,99373.86
2023-03-07T19:34:24.958Z,99379.64
2023-03-07T19:36:53.196Z,99382.67
2023-03-07T19:39:21.545Z,99385.34
2023-03-07T19:41:49.743Z,99384.06
2023-03-07T19:44:18.088Z,99385.37
2023-03-07T19:46:46.708Z,99384.61
2023-03-07T19:49:20.760Z,99389.86
2023-03-07T19:51:49.258Z,99387.57
2023-03-07T19:54:17.634Z,99387.84
2023-03-07T19:56:45.906Z,99386.59
2023-03-07T19:59:14.112Z,99384.34
2023-03-07T20:01:42.496Z,99385.02
2023-03-07T20:04:14.824Z,99388.23
2023-03-07T20:06:43.496Z,99391.10
2023-03-07T20:09:13.020Z,99389.19
2023-03-07T20:11:43.502Z,99392.11
2023-03-07T20:14:12.143Z,99395.74
2023-03-07T20:16:42.790Z,99398.14
2023-03-07T20:19:11.016Z,99399.64
2023-03-07T20:21:49.973Z,99399.73
2023-03-07T20:24:18.828Z,99400.58
2023-03-07T20:26:48.155Z,99401.14
2023-03-07T20:29:16.412Z,99401.14
2023-03-07T20:31:46.171Z,99400.97
2023-03-07T20:34:15.057Z,99397.82
2023-03-07T20:36:43.339Z,99399.95
2023-03-07T20:39:14.658Z,99397.80
2023-03-07T20:41:43.009Z,99399.63
2023-03-07T20:44:12.882Z,99405.05
2023-03-07T20:46:41.607Z,99403.23
2023-03-07T20:49:10.806Z,99402.95
2023-03-07T20:51:40.930Z,99410.41
2023-03-07T20:54:13.094Z,99408.05
2023-03-07T20:56:41.271Z,99404.66
2023-03-07T20:59:11.751Z,99409.17
2023-03-07T21:01:40.997Z,99409.03
2023-03-07T21:04:11.491Z,99414.23
2023-03-07T21:06:40.759Z,99414.44
2023-03-07T21:09:10.335Z,99413.61
2023-03-07T21:11:40.595Z,99418.78
2023-03-07T21:14:09.760Z,99419.64
2023-03-07T21:16:39.029Z,99418.10
2023-03-07T21:19:07.533Z,99419.65
2023-03-07T21:21:37.103Z,99425.99
2023-03-07T21:24:05.475Z,99428.06
2023-03-07T21:26:36.470Z,99425.64
2023-03-07T21:29:04.859Z,99427.02
2023-03-07T21:31:34.392Z,99428.23
2023-03-07T21:34:04.205Z,99430.98
2023-03-07T21:36:33.120Z,99431.87
2023-03-07T21:39:04.572Z,99433.45
2023-03-07T21:41:33.488Z,99431.23
2023-03-07T21:44:01.900Z,99432.46
2023-03-07T21:46:30.739Z,99428.02
2023-03-07T21:48:59.419Z,99433.53
2023-03-07T21:51:27.724Z,99434.21
2023-03-07T21:53:55.999Z,99438.34
2023-03-07T21:56:24.299Z,99440.24
2023-03-07T21:58:52.613Z,99438.55
2023-03-07T22:01:21.741Z,99437.88
2023-03-07T22:03:53.509Z,99436.50
2023-03-07T22:06:22.021Z,99432.73
2023-03-07T22:08:50.213Z,99438.05
2023-03-07T22:11:18.666Z,99438.08
2023-03-07T22:13:48.937Z,99445.29
2023-03-07T22:16:21.810Z,99441.36
2023-03-07T22:18:54.805Z,99441.56
2023-03-07T22:21:26.474Z,99448.27
2023-03-07T22:23:58.301Z,99449.48
2023-03-07T22:26:27.417Z,99452.06
2023-03-07T22:28:55.848Z,99450.54
2023-03-07T22:31:24.264Z,99448.48
2023-03-07T22:33:52.782Z,99451.41
2023-03-07T22:36:21.497Z,99453.81
2023-03-07T22:38:53.346Z,99453.14
2023-03-07T22:41:22.038Z,99456.90
2023-03-07T22:43:50.808Z,99461.20
2023-03-07T22:46:19.373Z,99466.67
2023-03-07T22:48:47.761Z,99469.42
2023-03-07T22:51:18.034Z,99471.30
2023-03-07T22:53:47.112Z,99470.95
2023-03-07T22:56:16.286Z,99472.80
2023-03-07T22:58:48.443Z,99471.75
2023-03-07T23:01:23.237Z,99470.19
2023-03-07T23:03:51.750Z,99468.96
2023-03-07T23:06:20.555Z,99469.47
2023-03-07T23:08:49.859Z,99468.60
2023-03-07T23:11:18.825Z,99468.27
2023-03-07T23:13:47.676Z,99468.11
2023-03-07T23:16:16.829Z,99471.20
2023-03-07T23:18:51.059Z,99469.14
2023-03-07T23:21:20.578Z,99470.00
2023-03-07T23:23:49.240Z,99473.95
2023-03-07T23:26:18.464Z,99475.67
2023-03-07T23:28:46.668Z,99479.96
2023-03-07T23:31:20.121Z,99476.88
2023-03-07T23:33:49.332Z,99481.33
2023-03-07T23:36:18.611Z,99483.20
2023-03-07T23:38:46.982Z,99481.52
2023-03-07T23:41:15.818Z,99480.14
2023-03-07T23:43:46.492Z,99477.23
2023-03-07T23:46:15.036Z,99478.09
2023-03-07T23:48:43.904Z,99478.79
2023-03-07T23:51:12.436Z,99476.25
2023-03-07T23:53:40.798Z,99481.77
2023-03-07T23:56:09.260Z,99480.58
2023-03-07T23:58:37.935Z,99480.42
